Aviation Digital Data Service (ADDS)

Output produced by METARs form (1329 UTC 22 April 2021)
found at http://www.aviationweather.gov/metar/data/
 
VTUK 221300Z 17007KT 9000 FEW030 31/23 Q1007 NOSIG
VTUK 221200Z VRB01KT 9000 FEW025 33/23 Q1006 NOSIG
VTUK 221100Z 16005KT 100V210 9000 SCT025 34/23 Q1005 NOSIG
VTUK 221000Z 33003KT 260V360 9999 SCT025 36/22 Q1005 NOSIG
VTUK 220900Z 31004KT 250V010 9999 SCT025 36/22 Q1005 NOSIG
VTUK 220800Z VRB04KT 9999 SCT030 36/22 Q1005 NOSIG
VTUK 220700Z 28005KT 230V360 9999 SCT025 36/23 Q1007 NOSIG
VTUK 220600Z VRB03KT 9999 SCT030 36/23 Q1008 NOSIG
VTUK 220500Z VRB03KT 9999 SCT030 34/23 Q1010 NOSIG
VTUK 220400Z VRB02KT 9999 FEW030 33/23 Q1010 NOSIG
VTUK 220300Z VRB02KT 9000 NSC 32/24 Q1011 NOSIG
VTUK 220200Z VRB02KT 9000 NSC 30/25 Q1011 NOSIG
VTUK 220100Z VRB02KT 9000 NSC 28/24 Q1011 NOSIG
VTUK 220000Z 03003KT 360V070 9000 NSC 27/24 Q1010 NOSIG
VTUK 212300Z 02004KT 8000 NSC 26/24 Q1009 NOSIG
VTUK 212200Z 02004KT 9000 NSC 26/24 Q1008 NOSIG
VTUK 212100Z 32004KT 9000 NSC 26/24 Q1008 NOSIG
VTUK 212000Z 30003KT 9000 NSC 26/24 Q1007 NOSIG
VTUK 211900Z VRB01KT 9000 NSC 27/24 Q1008 NOSIG
VTUK 211800Z 34002KT 9000 NSC 27/24 Q1009 NOSIG
VTUK 211700Z 04002KT 9000 NSC 28/24 Q1009 NOSIG
VTUK 211600Z 02003KT 9000 NSC 28/24 Q1010 NOSIG
VTUK 211500Z 33003KT 9000 NSC 30/23 Q1010 NOSIG
VTUK 211400Z VRB02KT 9000 NSC 30/24 Q1009 NOSIG
TAF VTUK 221100Z 2212/2312 19004KT 9000 FEW030 
     BECMG 2216/2218 31003KT 
     BECMG 2308/2310 20004KT